createdAt,value
2023-05-14T00:00:22.318Z,14.52
2023-05-14T00:01:22.175Z,14.41
2023-05-14T00:02:22.205Z,14.21
2023-05-14T00:03:22.307Z,14.13
2023-05-14T00:04:22.310Z,14.15
2023-05-14T00:05:22.217Z,14.25
2023-05-14T00:06:22.244Z,14.31
2023-05-14T00:07:22.256Z,14.49
2023-05-14T00:08:22.219Z,14.57
2023-05-14T00:09:22.264Z,14.63
2023-05-14T00:10:22.387Z,14.71
2023-05-14T00:11:22.350Z,14.74
2023-05-14T00:12:22.401Z,14.77
2023-05-14T00:13:22.489Z,14.76
2023-05-14T00:14:22.467Z,14.77
2023-05-14T00:15:22.407Z,14.81
2023-05-14T00:16:22.527Z,14.75
2023-05-14T00:17:22.553Z,14.71
2023-05-14T00:18:22.597Z,14.52
2023-05-14T00:19:22.660Z,14.41
2023-05-14T00:20:23.451Z,14.51
2023-05-14T00:21:22.726Z,14.57
2023-05-14T00:22:22.722Z,14.61
2023-05-14T00:23:22.742Z,14.68
2023-05-14T00:24:23.091Z,14.67
2023-05-14T00:25:22.739Z,14.68
2023-05-14T00:26:22.750Z,14.63
2023-05-14T00:27:23.672Z,14.61
2023-05-14T00:28:22.753Z,14.69
2023-05-14T00:29:22.819Z,14.66
2023-05-14T00:30:22.981Z,14.40
2023-05-14T00:31:22.921Z,14.26
2023-05-14T00:32:23.087Z,14.06
2023-05-14T00:33:22.952Z,14.01
2023-05-14T00:34:22.955Z,13.93
2023-05-14T00:35:23.034Z,13.85
2023-05-14T00:36:23.039Z,14.02
2023-05-14T00:37:23.071Z,13.99
2023-05-14T00:38:23.178Z,14.01
2023-05-14T00:39:23.141Z,14.02
2023-05-14T00:40:23.412Z,14.11
2023-05-14T00:41:23.215Z,14.24
2023-05-14T00:42:23.160Z,14.28
2023-05-14T00:43:23.183Z,14.33
2023-05-14T00:44:23.277Z,14.39
2023-05-14T00:45:23.248Z,14.46
2023-05-14T00:46:23.464Z,14.39
2023-05-14T00:47:23.386Z,14.45
2023-05-14T00:48:23.416Z,14.50
2023-05-14T00:49:23.419Z,14.53
2023-05-14T00:50:23.904Z,14.55
2023-05-14T00:51:23.480Z,14.52
2023-05-14T00:52:23.502Z,14.45
2023-05-14T00:53:23.556Z,14.27
2023-05-14T00:54:23.658Z,14.32
2023-05-14T00:55:23.606Z,14.43
2023-05-14T00:56:23.622Z,14.52
2023-05-14T00:57:23.652Z,14.40
2023-05-14T00:58:23.630Z,14.31
2023-05-14T00:59:23.694Z,14.18
2023-05-14T01:00:23.935Z,14.15
2023-05-14T01:01:23.766Z,14.09
2023-05-14T01:02:23.763Z,14.09
2023-05-14T01:03:23.810Z,14.21
2023-05-14T01:04:23.825Z,14.31
2023-05-14T01:05:23.788Z,14.41
2023-05-14T01:06:23.827Z,14.50
2023-05-14T01:07:23.845Z,14.54
2023-05-14T01:08:23.856Z,14.58
2023-05-14T01:09:23.878Z,14.50
2023-05-14T01:10:24.127Z,14.46
2023-05-14T01:11:23.879Z,14.41
2023-05-14T01:12:23.900Z,14.39
2023-05-14T01:13:23.874Z,14.34
2023-05-14T01:14:23.920Z,14.33
2023-05-14T01:15:24.009Z,14.38
2023-05-14T01:16:23.970Z,14.27
2023-05-14T01:17:24.292Z,14.30
2023-05-14T01:18:24.068Z,14.30
2023-05-14T01:19:24.032Z,14.34
2023-05-14T01:20:24.347Z,14.42
2023-05-14T01:21:24.058Z,14.49
2023-05-14T01:22:24.059Z,14.52
2023-05-14T01:23:24.059Z,14.61
2023-05-14T01:24:24.155Z,14.62
2023-05-14T01:25:24.171Z,14.55
2023-05-14T01:26:24.201Z,14.59
2023-05-14T01:27:24.723Z,14.58
2023-05-14T01:28:24.255Z,14.53
2023-05-14T01:29:24.337Z,14.48
2023-05-14T01:30:24.677Z,14.53
2023-05-14T01:31:24.323Z,14.61
2023-05-14T01:32:24.343Z,14.35
2023-05-14T01:33:24.331Z,14.14
2023-05-14T01:34:24.332Z,14.25
2023-05-14T01:35:24.394Z,14.26
2023-05-14T01:36:24.370Z,14.30
2023-05-14T01:37:24.388Z,14.27
2023-05-14T01:38:24.416Z,14.35
2023-05-14T01:39:25.420Z,14.35
2023-05-14T01:40:24.816Z,14.27
2023-05-14T01:41:24.568Z,14.32
2023-05-14T01:42:24.599Z,14.39
2023-05-14T01:43:24.668Z,14.47
2023-05-14T01:44:24.695Z,14.55
2023-05-14T01:45:24.738Z,14.61
2023-05-14T01:46:24.722Z,14.58
2023-05-14T01:47:24.799Z,14.51
2023-05-14T01:48:24.780Z,14.42
2023-05-14T01:49:24.847Z,14.42
2023-05-14T01:50:25.044Z,14.42
2023-05-14T01:51:24.894Z,14.36
2023-05-14T01:52:24.933Z,14.38
2023-05-14T01:53:24.915Z,14.25
2023-05-14T01:54:24.944Z,14.31
2023-05-14T01:55:24.985Z,14.41
2023-05-14T01:56:25.000Z,14.43
2023-05-14T01:57:25.076Z,14.42
2023-05-14T01:58:25.073Z,14.51
2023-05-14T01:59:25.105Z,14.55
2023-05-14T02:00:25.369Z,14.54
2023-05-14T02:01:25.156Z,14.56
2023-05-14T02:02:25.203Z,14.40
2023-05-14T02:03:25.511Z,14.44
2023-05-14T02:04:25.174Z,14.31
2023-05-14T02:05:25.198Z,14.09
2023-05-14T02:06:25.222Z,14.13
2023-05-14T02:07:25.272Z,14.13
2023-05-14T02:08:25.305Z,14.13
2023-05-14T02:09:25.429Z,14.24
2023-05-14T02:10:25.585Z,14.17
2023-05-14T02:11:25.445Z,14.17
2023-05-14T02:12:25.490Z,14.22
2023-05-14T02:13:25.514Z,14.18
2023-05-14T02:14:26.292Z,14.08
2023-05-14T02:15:26.001Z,14.14
2023-05-14T02:16:25.825Z,14.06
2023-05-14T02:17:25.754Z,14.13
2023-05-14T02:18:25.858Z,14.07
2023-05-14T02:19:25.760Z,14.12
2023-05-14T02:20:25.964Z,14.03
2023-05-14T02:21:25.772Z,14.02
2023-05-14T02:22:25.768Z,14.02
2023-05-14T02:23:37.949Z,13.95
2023-05-14T02:24:27.608Z,13.94
2023-05-14T02:25:25.841Z,13.89
2023-05-14T02:26:25.813Z,13.82
2023-05-14T02:27:25.772Z,13.92
2023-05-14T02:28:25.782Z,13.99
2023-05-14T02:29:25.746Z,13.98
2023-05-14T02:30:25.900Z,14.03
2023-05-14T02:31:25.819Z,14.00
2023-05-14T02:32:25.788Z,13.99
2023-05-14T02:33:25.800Z,13.91
2023-05-14T02:34:25.794Z,13.93
2023-05-14T02:35:25.852Z,13.87
2023-05-14T02:36:25.902Z,13.84
2023-05-14T02:37:25.918Z,13.80
2023-05-14T02:38:25.984Z,13.63
2023-05-14T02:39:26.017Z,13.69
2023-05-14T02:40:26.171Z,13.90
2023-05-14T02:41:26.036Z,13.88
2023-05-14T02:42:26.107Z,13.83
2023-05-14T02:43:26.145Z,13.76
2023-05-14T02:44:26.145Z,13.77
2023-05-14T02:45:26.143Z,13.82
2023-05-14T02:46:26.136Z,13.88
2023-05-14T02:47:26.214Z,13.94
2023-05-14T02:48:26.207Z,13.93
2023-05-14T02:49:26.282Z,14.04
2023-05-14T02:50:26.424Z,14.17
2023-05-14T02:51:26.303Z,14.26
2023-05-14T02:52:26.386Z,14.33
2023-05-14T02:53:26.409Z,14.40
2023-05-14T02:54:26.506Z,14.47
2023-05-14T02:55:26.624Z,14.37
2023-05-14T02:56:26.586Z,14.38
2023-05-14T02:57:26.618Z,14.42
2023-05-14T02:58:28.450Z,14.48
2023-05-14T02:59:26.731Z,14.50
2023-05-14T03:00:26.819Z,14.55
2023-05-14T03:01:26.868Z,14.53
2023-05-14T03:02:26.967Z,14.58
2023-05-14T03:03:26.910Z,14.62
2023-05-14T03:04:26.923Z,14.55
2023-05-14T03:05:26.991Z,14.47
2023-05-14T03:06:27.094Z,14.37
2023-05-14T03:07:27.073Z,14.38
2023-05-14T03:08:27.137Z,14.45
2023-05-14T03:09:27.184Z,14.40
2023-05-14T03:10:27.264Z,14.24
2023-05-14T03:11:34.888Z,14.28
2023-05-14T03:12:27.331Z,14.24
2023-05-14T03:13:27.236Z,14.27
2023-05-14T03:14:27.261Z,14.36
2023-05-14T03:15:27.234Z,14.19
2023-05-14T03:16:27.285Z,14.03
2023-05-14T03:17:27.235Z,14.14
2023-05-14T03:18:27.234Z,14.24
2023-05-14T03:19:27.204Z,14.29
2023-05-14T03:20:27.210Z,14.23
2023-05-14T03:21:27.163Z,14.31
2023-05-14T03:22:27.164Z,14.26
2023-05-14T03:23:27.181Z,14.09
2023-05-14T03:24:27.219Z,13.93
2023-05-14T03:25:27.183Z,13.90
2023-05-14T03:26:27.226Z,13.84
2023-05-14T03:27:27.260Z,13.90
2023-05-14T03:28:27.294Z,13.82
2023-05-14T03:29:27.388Z,13.96
2023-05-14T03:30:27.448Z,14.07
2023-05-14T03:31:27.517Z,14.13
2023-05-14T03:32:27.490Z,14.18
2023-05-14T03:33:27.482Z,14.24
2023-05-14T03:34:27.526Z,14.32
2023-05-14T03:35:27.545Z,14.34
2023-05-14T03:36:27.536Z,14.36
2023-05-14T03:37:27.592Z,14.39
2023-05-14T03:38:27.619Z,14.38
2023-05-14T03:39:27.651Z,14.29
2023-05-14T03:40:27.631Z,14.02
2023-05-14T03:41:27.676Z,14.03
2023-05-14T03:42:27.727Z,14.05
2023-05-14T03:43:27.744Z,14.03
2023-05-14T03:44:27.788Z,14.12
2023-05-14T03:45:27.834Z,14.23
2023-05-14T03:46:27.786Z,14.33
2023-05-14T03:47:27.855Z,14.39
2023-05-14T03:48:28.109Z,14.31
2023-05-14T03:49:27.980Z,14.31
2023-05-14T03:50:28.009Z,14.15
2023-05-14T03:51:28.057Z,14.21
2023-05-14T03:52:28.137Z,14.15
2023-05-14T03:53:28.167Z,14.13
2023-05-14T03:54:28.230Z,14.15
2023-05-14T03:55:28.263Z,14.11
2023-05-14T03:56:28.344Z,13.80
2023-05-14T03:57:28.370Z,13.84
2023-05-14T03:58:28.398Z,13.86
2023-05-14T03:59:28.424Z,13.93
2023-05-14T04:00:36.046Z,13.92
2023-05-14T04:01:28.455Z,13.90
2023-05-14T04:02:28.528Z,13.93
2023-05-14T04:03:28.546Z,13.93
2023-05-14T04:04:28.549Z,13.89
2023-05-14T04:05:28.419Z,13.77
2023-05-14T04:06:28.412Z,13.61
2023-05-14T04:07:28.411Z,13.36
2023-05-14T04:08:28.402Z,13.24
2023-05-14T04:09:28.380Z,13.19
2023-05-14T04:10:28.387Z,13.25
2023-05-14T04:11:28.381Z,13.28
2023-05-14T04:12:28.356Z,13.21
2023-05-14T04:13:28.363Z,13.26
2023-05-14T04:14:28.417Z,13.48
2023-05-14T04:15:28.514Z,13.63
2023-05-14T04:16:28.960Z,13.68
2023-05-14T04:17:28.654Z,13.69
2023-05-14T04:18:28.673Z,13.77
2023-05-14T04:19:29.067Z,13.69
2023-05-14T04:20:28.718Z,13.76
2023-05-14T04:21:28.809Z,13.83
2023-05-14T04:22:28.782Z,13.94
2023-05-14T04:23:28.839Z,14.01
2023-05-14T04:24:28.851Z,14.13
2023-05-14T04:25:28.891Z,14.13
2023-05-14T04:26:28.972Z,13.97
2023-05-14T04:27:29.025Z,13.88
2023-05-14T04:28:29.136Z,14.01
2023-05-14T04:29:29.149Z,14.09
2023-05-14T04:30:29.143Z,14.15
2023-05-14T04:31:29.145Z,14.06
2023-05-14T04:32:29.173Z,14.09
2023-05-14T04:33:29.240Z,14.02
2023-05-14T04:34:29.215Z,14.06
2023-05-14T04:35:29.238Z,14.08
2023-05-14T04:36:29.384Z,14.11
2023-05-14T04:37:29.235Z,14.21
2023-05-14T04:38:29.281Z,14.20
2023-05-14T04:39:29.305Z,14.18
2023-05-14T04:40:29.268Z,14.25
2023-05-14T04:41:29.295Z,14.20
2023-05-14T04:42:29.365Z,14.24
2023-05-14T04:43:29.379Z,14.23
2023-05-14T04:44:29.385Z,14.14
2023-05-14T04:45:29.437Z,14.04
2023-05-14T04:46:29.685Z,13.85
2023-05-14T04:47:29.649Z,13.73
2023-05-14T04:48:29.621Z,13.70
2023-05-14T04:49:29.677Z,13.65
2023-05-14T04:50:29.693Z,13.68
2023-05-14T04:51:29.734Z,13.77
2023-05-14T04:52:29.697Z,13.91
2023-05-14T04:53:29.747Z,14.00
2023-05-14T04:54:29.853Z,14.05
2023-05-14T04:55:29.809Z,14.06
2023-05-14T04:56:29.886Z,14.16
2023-05-14T04:57:29.965Z,14.18
2023-05-14T04:58:30.783Z,14.10
2023-05-14T04:59:30.298Z,13.92
2023-05-14T05:00:30.002Z,13.92
2023-05-14T05:01:30.036Z,13.95
2023-05-14T05:02:30.053Z,13.80
2023-05-14T05:03:30.120Z,13.80
2023-05-14T05:04:30.147Z,13.96
2023-05-14T05:05:30.200Z,14.05
2023-05-14T05:06:30.243Z,14.11
2023-05-14T05:07:30.253Z,14.20
2023-05-14T05:08:30.272Z,14.25
2023-05-14T05:09:30.282Z,14.27
2023-05-14T05:10:30.346Z,14.36
2023-05-14T05:11:30.375Z,14.42
2023-05-14T05:12:30.385Z,14.30
2023-05-14T05:13:30.360Z,14.25
2023-05-14T05:14:30.528Z,14.30
2023-05-14T05:15:30.395Z,14.37
2023-05-14T05:16:30.451Z,14.44
2023-05-14T05:17:30.555Z,14.44
2023-05-14T05:18:30.612Z,14.23
2023-05-14T05:19:42.410Z,14.16
2023-05-14T05:20:31.590Z,14.22
2023-05-14T05:21:30.621Z,14.15
2023-05-14T05:22:30.572Z,14.17
2023-05-14T05:23:30.585Z,14.17
2023-05-14T05:24:30.591Z,14.13
2023-05-14T05:25:30.558Z,14.20
2023-05-14T05:26:30.549Z,14.27
2023-05-14T05:27:30.902Z,14.36
2023-05-14T05:28:30.575Z,14.38
2023-05-14T05:29:30.617Z,14.38
2023-05-14T05:30:30.681Z,14.17
2023-05-14T05:31:30.754Z,14.07
2023-05-14T05:32:30.827Z,14.19
2023-05-14T05:33:30.846Z,14.24
2023-05-14T05:34:30.869Z,14.26
2023-05-14T05:35:30.862Z,14.25
2023-05-14T05:36:30.904Z,14.35
2023-05-14T05:37:30.972Z,14.43
2023-05-14T05:38:30.933Z,14.48
2023-05-14T05:39:31.011Z,14.49
2023-05-14T05:40:31.026Z,14.46
2023-05-14T05:41:31.108Z,14.50
2023-05-14T05:42:31.120Z,14.52
2023-05-14T05:43:31.221Z,14.52
2023-05-14T05:44:31.242Z,14.38
2023-05-14T05:45:31.213Z,14.07
2023-05-14T05:46:31.293Z,13.86
2023-05-14T05:47:31.386Z,13.67
2023-05-14T05:48:31.416Z,13.58
2023-05-14T05:49:31.465Z,13.68
2023-05-14T05:50:31.470Z,13.70
2023-05-14T05:51:31.526Z,13.89
2023-05-14T05:52:31.635Z,13.98
2023-05-14T05:53:31.634Z,14.10
2023-05-14T05:54:31.786Z,14.12
2023-05-14T05:55:31.774Z,14.13
2023-05-14T05:56:31.773Z,14.11
2023-05-14T05:57:31.820Z,14.24
2023-05-14T05:58:31.865Z,14.23
2023-05-14T05:59:31.856Z,14.31
2023-05-14T06:00:31.899Z,14.34
2023-05-14T06:01:31.936Z,14.39
2023-05-14T06:02:32.239Z,14.41
2023-05-14T06:03:32.001Z,14.44
2023-05-14T06:04:32.046Z,14.40
2023-05-14T06:05:32.057Z,14.37
2023-05-14T06:06:32.091Z,14.35
2023-05-14T06:07:32.101Z,14.24
2023-05-14T06:08:32.179Z,14.30
2023-05-14T06:09:32.155Z,14.41
2023-05-14T06:10:32.173Z,14.41
2023-05-14T06:11:32.219Z,14.35
2023-05-14T06:12:32.233Z,14.29
2023-05-14T06:13:32.253Z,14.38
2023-05-14T06:14:32.353Z,14.34
2023-05-14T06:15:32.366Z,14.29
2023-05-14T06:16:32.495Z,14.42
2023-05-14T06:17:32.512Z,14.52
2023-05-14T06:18:32.540Z,14.58
2023-05-14T06:19:32.572Z,14.63
2023-05-14T06:20:32.601Z,14.44
2023-05-14T06:21:32.642Z,14.47
2023-05-14T06:22:32.637Z,14.55
2023-05-14T06:23:32.686Z,14.53
2023-05-14T06:24:32.750Z,14.65
2023-05-14T06:25:32.748Z,14.75
2023-05-14T06:26:32.798Z,14.78
2023-05-14T06:27:32.861Z,14.84
2023-05-14T06:28:32.909Z,14.64
2023-05-14T06:29:32.972Z,14.25
2023-05-14T06:30:33.035Z,14.33
2023-05-14T06:31:33.098Z,14.50
2023-05-14T06:32:33.134Z,14.69
2023-05-14T06:33:33.085Z,14.76
2023-05-14T06:34:33.100Z,14.85
2023-05-14T06:35:33.091Z,14.89
2023-05-14T06:36:33.111Z,14.98
2023-05-14T06:37:33.164Z,14.81
2023-05-14T06:38:33.200Z,14.56
2023-05-14T06:39:33.309Z,14.27
2023-05-14T06:40:33.244Z,14.14
2023-05-14T06:41:33.425Z,14.08
2023-05-14T06:42:33.347Z,14.03
2023-05-14T06:43:33.429Z,14.09
2023-05-14T06:44:33.470Z,14.02
2023-05-14T06:45:33.498Z,14.13
2023-05-14T06:46:33.499Z,14.27
2023-05-14T06:47:33.617Z,14.43
2023-05-14T06:48:33.563Z,14.40
2023-05-14T06:49:33.619Z,14.50
2023-05-14T06:50:33.591Z,14.64
2023-05-14T06:51:33.575Z,14.88
2023-05-14T06:52:33.574Z,14.66
2023-05-14T06:53:33.583Z,14.46
2023-05-14T06:54:33.600Z,14.36
2023-05-14T06:55:33.633Z,14.62
2023-05-14T06:56:33.659Z,14.88
2023-05-14T06:57:33.630Z,15.07
2023-05-14T06:58:33.671Z,15.19
2023-05-14T06:59:33.721Z,15.33
2023-05-14T07:00:33.729Z,15.53
2023-05-14T07:01:33.826Z,15.66
2023-05-14T07:02:33.934Z,15.81
2023-05-14T07:03:33.917Z,15.67
2023-05-14T07:04:33.883Z,15.47
2023-05-14T07:05:33.849Z,15.45
2023-05-14T07:06:33.832Z,15.44
2023-05-14T07:07:33.908Z,15.52
2023-05-14T07:08:33.889Z,15.61
2023-05-14T07:09:33.957Z,15.69
2023-05-14T07:10:33.947Z,15.66
2023-05-14T07:11:33.934Z,15.79
2023-05-14T07:12:33.954Z,15.86
2023-05-14T07:13:33.980Z,16.01
2023-05-14T07:14:34.048Z,16.09
2023-05-14T07:15:34.003Z,16.19
2023-05-14T07:16:34.129Z,16.23
2023-05-14T07:17:34.087Z,16.30
2023-05-14T07:18:34.104Z,16.04
2023-05-14T07:19:34.132Z,15.92
2023-05-14T07:20:34.120Z,15.64
2023-05-14T07:21:34.205Z,15.34
2023-05-14T07:22:34.269Z,15.14
2023-05-14T07:23:34.357Z,15.01
2023-05-14T07:24:34.380Z,15.20
2023-05-14T07:25:34.444Z,15.49
2023-05-14T07:26:34.484Z,15.66
2023-05-14T07:27:34.548Z,15.86
2023-05-14T07:28:34.545Z,16.06
2023-05-14T07:29:34.667Z,16.10
2023-05-14T07:30:34.687Z,15.98
2023-05-14T07:31:34.821Z,15.88
2023-05-14T07:32:34.808Z,15.99
2023-05-14T07:33:34.732Z,15.88
2023-05-14T07:34:34.834Z,15.80
2023-05-14T07:35:34.865Z,15.61
2023-05-14T07:36:35.796Z,15.83
2023-05-14T07:37:34.886Z,16.07
2023-05-14T07:38:34.876Z,16.25
2023-05-14T07:39:34.928Z,16.36
2023-05-14T07:40:35.008Z,16.46
2023-05-14T07:41:35.065Z,16.23
2023-05-14T07:42:36.931Z,16.12
2023-05-14T07:43:35.179Z,16.24
2023-05-14T07:44:35.128Z,16.39
2023-05-14T07:45:35.134Z,16.27
2023-05-14T07:46:35.155Z,16.25
2023-05-14T07:47:35.235Z,16.43
2023-05-14T07:48:35.204Z,16.53
2023-05-14T07:49:35.306Z,16.41
2023-05-14T07:50:35.247Z,16.27
2023-05-14T07:51:35.278Z,16.14
2023-05-14T07:52:35.286Z,16.02
2023-05-14T07:53:35.271Z,16.19
2023-05-14T07:54:35.294Z,16.37
2023-05-14T07:55:35.382Z,16.13
2023-05-14T07:56:35.305Z,15.89
2023-05-14T07:57:35.296Z,16.11
2023-05-14T07:58:35.428Z,16.30
2023-05-14T07:59:35.539Z,16.46
2023-05-14T08:00:35.550Z,16.72
2023-05-14T08:01:37.108Z,16.88
2023-05-14T08:02:35.672Z,16.97
2023-05-14T08:03:35.636Z,16.81
2023-05-14T08:04:35.637Z,16.97
2023-05-14T08:05:35.550Z,16.96
2023-05-14T08:06:35.561Z,16.97
2023-05-14T08:07:35.567Z,17.13
2023-05-14T08:08:35.552Z,17.21
2023-05-14T08:09:35.563Z,17.38
2023-05-14T08:10:35.557Z,17.52
2023-05-14T08:11:35.504Z,17.63
2023-05-14T08:12:35.506Z,17.72
2023-05-14T08:13:35.469Z,17.67
2023-05-14T08:14:35.593Z,17.53
2023-05-14T08:15:35.464Z,17.27
2023-05-14T08:16:35.511Z,17.26
2023-05-14T08:17:35.482Z,17.17
2023-05-14T08:18:35.438Z,17.20
2023-05-14T08:19:35.460Z,17.41
2023-05-14T08:20:35.467Z,17.35
2023-05-14T08:21:35.452Z,17.32
2023-05-14T08:22:35.436Z,17.53
2023-05-14T08:23:35.489Z,17.52
2023-05-14T08:24:35.465Z,17.24
2023-05-14T08:25:35.417Z,17.36
2023-05-14T08:26:35.415Z,17.22
2023-05-14T08:27:35.437Z,17.37
2023-05-14T08:28:35.400Z,17.44
2023-05-14T08:29:35.432Z,17.48
2023-05-14T08:30:35.415Z,17.70
2023-05-14T08:31:35.427Z,18.00
2023-05-14T08:32:35.429Z,18.02
2023-05-14T08:33:35.381Z,18.13
2023-05-14T08:34:35.371Z,17.84
2023-05-14T08:35:35.357Z,17.86
2023-05-14T08:36:35.367Z,17.87
2023-05-14T08:37:35.303Z,17.81
2023-05-14T08:38:35.342Z,17.95
2023-05-14T08:39:35.357Z,18.08
2023-05-14T08:40:35.304Z,18.19
2023-05-14T08:41:35.313Z,18.37
2023-05-14T08:42:35.307Z,18.11
2023-05-14T08:43:35.302Z,18.41
2023-05-14T08:44:35.358Z,18.77
2023-05-14T08:45:35.279Z,19.02
2023-05-14T08:46:35.326Z,19.23
2023-05-14T08:47:35.340Z,19.31
2023-05-14T08:48:35.666Z,19.41
2023-05-14T08:49:35.342Z,19.34
2023-05-14T08:50:35.253Z,19.22
2023-05-14T08:51:35.255Z,19.22
2023-05-14T08:52:35.245Z,19.36
2023-05-14T08:53:35.228Z,19.55
2023-05-14T08:54:35.247Z,19.83
2023-05-14T08:55:35.247Z,20.10
2023-05-14T08:56:35.172Z,20.25
2023-05-14T08:57:35.201Z,20.37
2023-05-14T08:58:35.290Z,20.49
2023-05-14T08:59:35.320Z,20.41
2023-05-14T09:00:35.384Z,20.46
2023-05-14T09:01:35.450Z,20.38
2023-05-14T09:02:35.457Z,20.25
2023-05-14T09:03:35.545Z,20.20
2023-05-14T09:04:35.525Z,20.07
2023-05-14T09:05:35.524Z,20.00
2023-05-14T09:06:35.524Z,20.12
2023-05-14T09:07:35.661Z,19.87
2023-05-14T09:08:35.602Z,20.06
2023-05-14T09:09:35.683Z,20.31
2023-05-14T09:10:35.656Z,20.01
2023-05-14T09:11:35.685Z,19.72
2023-05-14T09:12:36.768Z,19.61
2023-05-14T09:13:35.837Z,19.61
2023-05-14T09:14:35.846Z,19.63
2023-05-14T09:15:35.924Z,19.86
2023-05-14T09:16:35.991Z,20.03
2023-05-14T09:17:36.008Z,20.08
2023-05-14T09:18:36.039Z,20.02
2023-05-14T09:19:36.036Z,20.24
2023-05-14T09:20:36.060Z,20.28
2023-05-14T09:21:36.091Z,20.04
2023-05-14T09:22:36.105Z,20.15
2023-05-14T09:23:36.183Z,19.96
2023-05-14T09:24:36.192Z,19.94
2023-05-14T09:25:36.218Z,19.96
2023-05-14T09:26:36.274Z,20.25
2023-05-14T09:27:36.320Z,20.41
2023-05-14T09:28:36.358Z,20.46
2023-05-14T09:29:36.430Z,20.24
2023-05-14T09:30:36.434Z,20.19
2023-05-14T09:31:36.503Z,20.24
2023-05-14T09:32:36.515Z,20.36
2023-05-14T09:33:36.565Z,20.43
2023-05-14T09:34:36.584Z,20.35
2023-05-14T09:35:36.622Z,20.34
2023-05-14T09:36:36.656Z,20.32
2023-05-14T09:37:36.721Z,20.41
2023-05-14T09:38:36.734Z,20.45
2023-05-14T09:39:36.832Z,20.24
2023-05-14T09:40:36.791Z,19.76
2023-05-14T09:41:36.863Z,19.59
2023-05-14T09:42:36.884Z,19.59
2023-05-14T09:43:36.903Z,19.31
2023-05-14T09:44:36.960Z,19.14
2023-05-14T09:45:36.945Z,19.36
2023-05-14T09:46:37.015Z,19.49
2023-05-14T09:47:37.195Z,19.58
2023-05-14T09:48:37.211Z,19.66
2023-05-14T09:49:37.203Z,19.78
2023-05-14T09:50:37.190Z,19.66
2023-05-14T09:51:37.263Z,19.76
2023-05-14T09:52:37.371Z,19.85
2023-05-14T09:53:37.345Z,20.02
2023-05-14T09:54:37.420Z,20.07
2023-05-14T09:55:37.462Z,20.07
2023-05-14T09:56:37.527Z,19.88
2023-05-14T09:57:37.554Z,19.70
2023-05-14T09:58:37.581Z,19.71
2023-05-14T09:59:37.717Z,19.53
2023-05-14T10:00:37.733Z,19.53
2023-05-14T10:01:37.909Z,19.67
2023-05-14T10:02:38.204Z,19.72
2023-05-14T10:03:38.270Z,19.86
2023-05-14T10:04:38.015Z,19.99
2023-05-14T10:05:37.967Z,19.66
2023-05-14T10:06:38.006Z,19.67
2023-05-14T10:07:38.039Z,19.52
2023-05-14T10:08:38.068Z,19.43
2023-05-14T10:09:38.101Z,19.39
2023-05-14T10:10:38.138Z,19.58
2023-05-14T10:11:38.239Z,19.68
2023-05-14T10:12:38.244Z,19.82
2023-05-14T10:13:38.270Z,19.95
2023-05-14T10:14:38.362Z,19.86
2023-05-14T10:15:38.324Z,19.72
2023-05-14T10:16:38.484Z,19.53
2023-05-14T10:17:38.420Z,19.48
2023-05-14T10:18:38.430Z,19.61
2023-05-14T10:19:38.468Z,19.70
2023-05-14T10:20:38.490Z,19.73
2023-05-14T10:21:38.533Z,19.70
2023-05-14T10:22:38.551Z,19.77
2023-05-14T10:23:38.599Z,19.42
2023-05-14T10:24:38.613Z,19.17
2023-05-14T10:25:38.635Z,19.17
2023-05-14T10:26:38.671Z,18.95
2023-05-14T10:27:38.727Z,18.96
2023-05-14T10:28:38.788Z,18.74
2023-05-14T10:29:38.811Z,18.60
2023-05-14T10:30:38.820Z,18.83
2023-05-14T10:31:38.921Z,19.02
2023-05-14T10:32:38.892Z,19.25
2023-05-14T10:33:38.860Z,19.45
2023-05-14T10:34:38.981Z,19.53
2023-05-14T10:35:38.916Z,19.69
2023-05-14T10:36:38.996Z,19.82
2023-05-14T10:37:39.004Z,19.88
2023-05-14T10:38:39.087Z,19.89
2023-05-14T10:39:39.566Z,19.61
2023-05-14T10:40:39.077Z,19.42
2023-05-14T10:41:39.161Z,19.51
2023-05-14T10:42:39.183Z,19.68
2023-05-14T10:43:39.194Z,19.81
2023-05-14T10:44:39.262Z,19.86
2023-05-14T10:45:39.281Z,19.73
2023-05-14T10:46:39.369Z,19.73
2023-05-14T10:47:39.391Z,19.84
2023-05-14T10:48:39.339Z,19.96
2023-05-14T10:49:43.296Z,20.03
2023-05-14T10:50:39.433Z,19.74
2023-05-14T10:51:39.516Z,19.62
2023-05-14T10:52:39.428Z,19.66
2023-05-14T10:53:39.347Z,19.64
2023-05-14T10:54:39.346Z,19.61
2023-05-14T10:55:39.341Z,19.71
2023-05-14T10:56:39.329Z,19.70
2023-05-14T10:57:39.351Z,19.64
2023-05-14T10:58:39.308Z,19.65
2023-05-14T10:59:39.386Z,19.68
2023-05-14T11:00:39.300Z,19.60
2023-05-14T11:01:39.293Z,19.51
2023-05-14T11:02:39.376Z,19.43
2023-05-14T11:03:39.294Z,19.53
2023-05-14T11:04:39.309Z,19.61
2023-05-14T11:05:39.296Z,19.59
2023-05-14T11:06:39.271Z,19.55
2023-05-14T11:07:39.289Z,19.72
2023-05-14T11:08:39.319Z,19.64
2023-05-14T11:09:39.368Z,19.66
2023-05-14T11:10:39.457Z,19.67
2023-05-14T11:11:39.435Z,19.51
2023-05-14T11:12:39.452Z,19.61
2023-05-14T11:13:39.540Z,19.76
2023-05-14T11:14:39.532Z,19.85
2023-05-14T11:15:39.590Z,19.87
2023-05-14T11:16:39.669Z,19.63
2023-05-14T11:17:39.706Z,19.56
2023-05-14T11:18:39.737Z,19.70
2023-05-14T11:19:39.701Z,19.68
2023-05-14T11:20:39.747Z,19.71
2023-05-14T11:21:39.813Z,19.82
2023-05-14T11:22:39.794Z,19.89
2023-05-14T11:23:39.811Z,19.97
2023-05-14T11:24:39.869Z,20.09
2023-05-14T11:25:39.946Z,19.98
2023-05-14T11:26:39.954Z,19.89
2023-05-14T11:27:39.968Z,19.94
2023-05-14T11:28:40.016Z,19.90
2023-05-14T11:29:40.037Z,19.87
2023-05-14T11:30:40.059Z,19.90
2023-05-14T11:31:40.062Z,20.00
2023-05-14T11:32:40.118Z,19.98
2023-05-14T11:33:40.148Z,20.01
2023-05-14T11:34:40.086Z,19.87
2023-05-14T11:35:40.238Z,19.87
2023-05-14T11:36:40.171Z,19.88
2023-05-14T11:37:40.208Z,19.94
2023-05-14T11:38:40.248Z,19.99
2023-05-14T11:39:40.280Z,20.05
2023-05-14T11:40:40.292Z,20.11
2023-05-14T11:41:40.354Z,20.21
2023-05-14T11:42:40.397Z,20.16
2023-05-14T11:43:40.374Z,20.23
2023-05-14T11:44:40.423Z,20.27
2023-05-14T11:45:40.535Z,20.14
2023-05-14T11:46:40.598Z,20.13
2023-05-14T11:47:40.593Z,20.12
2023-05-14T11:48:40.649Z,19.93
2023-05-14T11:49:40.713Z,19.87
2023-05-14T11:50:40.730Z,19.89
2023-05-14T11:51:40.778Z,19.96
2023-05-14T11:52:40.810Z,19.99
2023-05-14T11:53:40.789Z,20.05
2023-05-14T11:54:40.866Z,20.02
2023-05-14T11:55:40.906Z,19.86
2023-05-14T11:56:40.920Z,19.91
2023-05-14T11:57:40.978Z,19.97
2023-05-14T11:58:40.991Z,19.92
2023-05-14T11:59:40.987Z,19.77
2023-05-14T12:00:41.047Z,19.73
2023-05-14T12:01:41.123Z,19.71
2023-05-14T12:02:41.236Z,19.77
2023-05-14T12:03:41.452Z,19.61
2023-05-14T12:04:41.263Z,19.28
2023-05-14T12:05:41.269Z,19.35
2023-05-14T12:06:41.391Z,19.53
2023-05-14T12:07:41.354Z,19.26
2023-05-14T12:08:41.365Z,19.36
2023-05-14T12:09:43.023Z,19.49
2023-05-14T12:10:41.408Z,19.57
2023-05-14T12:11:41.368Z,19.23
2023-05-14T12:12:41.387Z,19.19
2023-05-14T12:13:41.353Z,19.34
2023-05-14T12:14:41.358Z,19.46
2023-05-14T12:15:41.394Z,19.53
2023-05-14T12:16:41.752Z,19.60
2023-05-14T12:17:41.428Z,19.59
2023-05-14T12:18:41.393Z,19.62
2023-05-14T12:19:41.336Z,19.72
2023-05-14T12:20:41.314Z,19.80
2023-05-14T12:21:41.298Z,19.90
2023-05-14T12:22:41.656Z,19.98
2023-05-14T12:23:41.307Z,19.96
2023-05-14T12:24:41.313Z,20.01
2023-05-14T12:25:41.270Z,19.93
2023-05-14T12:26:41.265Z,19.67
2023-05-14T12:27:41.278Z,19.69
2023-05-14T12:28:41.274Z,19.43
2023-05-14T12:29:41.234Z,19.48
2023-05-14T12:30:41.290Z,19.58
2023-05-14T12:31:41.362Z,19.63
2023-05-14T12:32:41.407Z,19.70
2023-05-14T12:33:41.199Z,19.78
2023-05-14T12:34:41.216Z,19.78
2023-05-14T12:35:41.227Z,19.81
2023-05-14T12:36:41.190Z,19.79
2023-05-14T12:37:41.195Z,19.57
2023-05-14T12:38:41.293Z,19.56
2023-05-14T12:39:41.228Z,19.45
2023-05-14T12:40:41.255Z,19.39
2023-05-14T12:41:41.267Z,19.23
2023-05-14T12:42:41.183Z,19.27
2023-05-14T12:43:41.194Z,19.35
2023-05-14T12:44:41.150Z,19.40
2023-05-14T12:45:41.171Z,19.43
2023-05-14T12:46:41.208Z,19.35
2023-05-14T12:47:41.218Z,19.18
2023-05-14T12:48:41.213Z,18.82
2023-05-14T12:49:41.141Z,18.65
2023-05-14T12:50:41.145Z,18.51
2023-05-14T12:51:41.152Z,18.28
2023-05-14T12:52:41.101Z,18.20